createdAt,value
2017-12-31T00:01:30.327Z,43.60
2017-12-31T00:03:58.314Z,43.60
2017-12-31T00:06:26.199Z,43.80
2017-12-31T00:08:57.790Z,43.70
2017-12-31T00:11:25.651Z,43.70
2017-12-31T00:13:53.566Z,43.70
2017-12-31T00:16:21.514Z,43.70
2017-12-31T00:18:49.499Z,43.70
2017-12-31T00:21:17.412Z,43.60
2017-12-31T00:23:48.233Z,43.70
2017-12-31T00:26:16.034Z,43.60
2017-12-31T00:28:43.940Z,43.70
2017-12-31T00:31:11.867Z,43.70
2017-12-31T00:33:42.031Z,43.70
2017-12-31T00:36:09.945Z,43.80
2017-12-31T00:38:37.792Z,43.70
2017-12-31T00:41:07.020Z,43.90
2017-12-31T00:43:34.835Z,43.90
2017-12-31T00:46:02.676Z,43.90
2017-12-31T00:48:30.565Z,44.00
2017-12-31T00:50:58.416Z,44.00
2017-12-31T00:53:26.220Z,44.00
2017-12-31T00:55:54.069Z,44.10
2017-12-31T00:58:21.921Z,44.20
2017-12-31T01:00:49.759Z,44.10
2017-12-31T01:03:17.622Z,44.00
2017-12-31T01:05:46.239Z,44.10
2017-12-31T01:08:14.057Z,44.10
2017-12-31T01:10:41.911Z,44.10
2017-12-31T01:13:09.800Z,44.10
2017-12-31T01:15:37.633Z,44.10
2017-12-31T01:18:05.501Z,44.10
2017-12-31T01:20:33.318Z,44.10
2017-12-31T01:23:01.136Z,44.20
2017-12-31T01:25:29.036Z,44.10
2017-12-31T01:27:56.885Z,44.10
2017-12-31T01:30:24.672Z,44.10
2017-12-31T01:32:52.554Z,44.20
2017-12-31T01:35:21.191Z,44.40
2017-12-31T01:37:49.040Z,44.30
2017-12-31T01:40:16.922Z,44.90
2017-12-31T01:42:44.769Z,44.30
2017-12-31T01:45:12.583Z,44.30
2017-12-31T01:47:40.401Z,44.30
2017-12-31T01:50:09.007Z,44.40
2017-12-31T01:52:36.892Z,44.40
2017-12-31T01:55:05.528Z,44.40
2017-12-31T01:57:33.405Z,44.30
2017-12-31T02:00:02.966Z,44.40
2017-12-31T02:02:30.746Z,44.30
2017-12-31T02:04:59.402Z,44.40
2017-12-31T02:07:27.286Z,44.30
2017-12-31T02:09:55.103Z,44.40
2017-12-31T02:12:22.957Z,44.50
2017-12-31T02:14:50.780Z,44.50
2017-12-31T02:17:18.647Z,44.40
2017-12-31T02:19:46.470Z,44.60
2017-12-31T02:22:14.269Z,44.50
2017-12-31T02:24:42.114Z,44.60
2017-12-31T02:27:09.909Z,44.60
2017-12-31T02:29:37.693Z,44.60
2017-12-31T02:32:05.516Z,44.60
2017-12-31T02:34:34.076Z,44.50
2017-12-31T02:37:02.413Z,44.40
2017-12-31T02:39:30.269Z,44.60
2017-12-31T02:41:58.114Z,44.60
2017-12-31T02:44:26.670Z,44.80
2017-12-31T02:46:54.774Z,44.60
2017-12-31T02:49:22.553Z,44.60
2017-12-31T02:51:50.413Z,44.80
2017-12-31T02:54:19.028Z,44.70
2017-12-31T02:56:46.869Z,44.60
2017-12-31T02:59:15.414Z,44.50
2017-12-31T03:01:43.202Z,44.50
2017-12-31T03:04:11.010Z,44.60
2017-12-31T03:06:38.825Z,44.50
2017-12-31T03:09:06.691Z,44.60
2017-12-31T03:11:34.507Z,44.60
2017-12-31T03:14:02.302Z,44.60
2017-12-31T03:16:30.190Z,44.70
2017-12-31T03:18:58.060Z,44.70
2017-12-31T03:21:25.924Z,44.80
2017-12-31T03:23:53.733Z,44.80
2017-12-31T03:26:21.598Z,44.90
2017-12-31T03:28:50.207Z,44.90
2017-12-31T03:31:18.057Z,44.80
2017-12-31T03:33:46.619Z,44.70
2017-12-31T03:36:14.447Z,44.70
2017-12-31T03:38:42.316Z,44.70
2017-12-31T03:41:10.233Z,44.70
2017-12-31T03:43:38.112Z,44.70
2017-12-31T03:46:06.717Z,44.80
2017-12-31T03:48:34.563Z,44.70
2017-12-31T03:51:03.120Z,44.60
2017-12-31T03:53:30.977Z,44.40
2017-12-31T03:55:58.901Z,44.60
2017-12-31T03:58:26.760Z,44.60
2017-12-31T04:00:54.553Z,44.60
2017-12-31T04:03:22.355Z,44.70
2017-12-31T04:05:50.670Z,44.60
2017-12-31T04:08:18.446Z,44.70
2017-12-31T04:10:46.239Z,44.80
2017-12-31T04:13:14.117Z,44.80
2017-12-31T04:15:42.015Z,44.90
2017-12-31T04:18:09.904Z,45.00
2017-12-31T04:20:37.744Z,44.80
2017-12-31T04:23:05.610Z,44.80
2017-12-31T04:25:33.447Z,44.80
2017-12-31T04:28:01.231Z,44.80
2017-12-31T04:30:29.011Z,44.70
2017-12-31T04:32:56.873Z,44.80
2017-12-31T04:35:24.706Z,44.70
2017-12-31T04:37:52.563Z,44.80
2017-12-31T04:40:20.408Z,44.70
2017-12-31T04:42:48.306Z,44.70
2017-12-31T04:45:16.135Z,44.70
2017-12-31T04:47:44.044Z,44.70
2017-12-31T04:50:12.687Z,44.60
2017-12-31T04:52:40.565Z,44.50
2017-12-31T04:55:08.376Z,44.40
2017-12-31T04:57:36.212Z,44.10
2017-12-31T05:00:04.131Z,44.00
2017-12-31T05:02:32.492Z,43.50
2017-12-31T05:05:00.344Z,43.20
2017-12-31T05:07:28.128Z,42.90
2017-12-31T05:09:56.096Z,42.60
2017-12-31T05:12:24.643Z,42.10
2017-12-31T05:14:52.488Z,42.00
2017-12-31T05:17:20.302Z,41.90
2017-12-31T05:19:48.127Z,41.20
2017-12-31T05:22:15.994Z,42.10
2017-12-31T05:24:43.842Z,41.30
2017-12-31T05:27:11.628Z,41.10
2017-12-31T05:29:39.423Z,40.90
2017-12-31T05:32:07.295Z,40.80
2017-12-31T05:34:35.181Z,40.60
2017-12-31T05:37:03.053Z,40.50
2017-12-31T05:39:31.690Z,39.40
2017-12-31T05:41:59.547Z,39.40
2017-12-31T05:44:27.348Z,39.50
2017-12-31T05:46:55.223Z,40.50
2017-12-31T05:49:23.095Z,40.30
2017-12-31T05:51:50.880Z,40.60
2017-12-31T05:54:19.493Z,40.80
2017-12-31T05:56:47.390Z,40.70
2017-12-31T05:59:15.227Z,40.80
2017-12-31T06:01:43.075Z,41.00
2017-12-31T06:04:10.868Z,41.10
2017-12-31T06:06:38.714Z,41.10
2017-12-31T06:09:07.344Z,41.30
2017-12-31T06:11:35.122Z,41.10
2017-12-31T06:14:02.981Z,41.40
2017-12-31T06:16:30.811Z,41.50
2017-12-31T06:18:58.677Z,41.70
2017-12-31T06:21:26.504Z,41.80
2017-12-31T06:23:54.310Z,41.00
2017-12-31T06:26:22.856Z,42.10
2017-12-31T06:28:50.706Z,42.00
2017-12-31T06:31:18.574Z,42.20
2017-12-31T06:33:46.461Z,42.20
2017-12-31T06:36:14.222Z,42.30
2017-12-31T06:38:42.057Z,42.40
2017-12-31T06:41:09.853Z,42.50
2017-12-31T06:43:37.707Z,42.60
2017-12-31T06:46:05.487Z,42.70
2017-12-31T06:48:33.265Z,42.80
2017-12-31T06:51:01.118Z,42.90
2017-12-31T06:53:28.969Z,42.90
2017-12-31T06:55:57.340Z,42.90
2017-12-31T06:58:25.137Z,43.20
2017-12-31T07:00:52.930Z,43.20
2017-12-31T07:03:20.742Z,43.20
2017-12-31T07:05:48.540Z,43.30
2017-12-31T07:08:16.402Z,43.30
2017-12-31T07:10:45.108Z,43.40
2017-12-31T07:13:12.965Z,43.30
2017-12-31T07:15:40.826Z,43.40
2017-12-31T07:18:08.661Z,43.50
2017-12-31T07:20:36.427Z,43.60
2017-12-31T07:23:04.291Z,43.70
2017-12-31T07:25:32.162Z,43.80
2017-12-31T07:28:00.910Z,44.00
2017-12-31T07:30:28.710Z,43.90
2017-12-31T07:32:56.512Z,43.90
2017-12-31T07:35:24.415Z,44.00
2017-12-31T07:37:52.282Z,44.00
2017-12-31T07:40:20.109Z,44.00
2017-12-31T07:42:47.963Z,43.90
2017-12-31T07:45:15.754Z,43.90
2017-12-31T07:47:43.542Z,44.00
2017-12-31T07:50:11.433Z,44.00
2017-12-31T07:52:39.200Z,44.00
2017-12-31T07:55:06.998Z,44.00
2017-12-31T07:57:35.618Z,43.60
2017-12-31T08:00:03.454Z,43.60
2017-12-31T08:02:31.262Z,43.70
2017-12-31T08:04:59.781Z,42.40
2017-12-31T08:07:27.642Z,43.60
2017-12-31T08:09:55.540Z,43.50
2017-12-31T08:12:23.337Z,43.20
2017-12-31T08:14:51.199Z,42.90
2017-12-31T08:17:19.098Z,42.60
2017-12-31T08:19:46.883Z,42.40
2017-12-31T08:22:14.714Z,42.30
2017-12-31T08:24:42.580Z,42.30
2017-12-31T08:27:10.619Z,42.00
2017-12-31T08:29:38.490Z,41.90
2017-12-31T08:32:06.369Z,41.90
2017-12-31T08:34:34.188Z,41.90
2017-12-31T08:37:01.992Z,41.80
2017-12-31T08:39:30.579Z,41.90
2017-12-31T08:41:59.207Z,41.80
2017-12-31T08:44:27.076Z,41.70
2017-12-31T08:46:54.886Z,41.80
2017-12-31T08:49:22.712Z,41.80
2017-12-31T08:51:50.534Z,41.90
2017-12-31T08:54:19.145Z,42.00
2017-12-31T08:59:25.182Z,41.90
2017-12-31T09:01:53.829Z,41.90
2017-12-31T09:04:31.889Z,41.80
2017-12-31T09:09:33.792Z,42.10
2017-12-31T09:12:03.449Z,42.10
2017-12-31T09:14:32.636Z,43.00
2017-12-31T09:17:00.498Z,42.30
2017-12-31T09:19:28.354Z,42.30
2017-12-31T09:21:56.267Z,41.70
2017-12-31T09:24:24.067Z,42.50
2017-12-31T09:26:51.873Z,42.90
2017-12-31T09:29:19.684Z,42.90
2017-12-31T09:31:48.045Z,42.80
2017-12-31T09:34:15.865Z,42.40
2017-12-31T09:36:43.682Z,42.80
2017-12-31T09:39:11.537Z,43.00
2017-12-31T09:41:40.196Z,43.00
2017-12-31T09:44:08.040Z,43.20
2017-12-31T09:46:35.843Z,43.50
2017-12-31T09:49:03.638Z,40.10
2017-12-31T09:51:32.315Z,40.00
2017-12-31T09:54:00.114Z,43.90
2017-12-31T09:56:27.914Z,43.70
2017-12-31T09:58:56.549Z,43.70
2017-12-31T10:01:24.393Z,43.70
2017-12-31T10:03:52.175Z,43.70
2017-12-31T10:06:19.956Z,43.70
2017-12-31T10:08:55.372Z,41.80
2017-12-31T10:11:24.011Z,44.10
2017-12-31T10:13:51.804Z,44.80
2017-12-31T10:16:19.649Z,40.50
2017-12-31T10:18:47.405Z,37.00
2017-12-31T10:21:15.209Z,44.90
2017-12-31T10:23:43.029Z,43.60
2017-12-31T10:26:10.855Z,43.30
2017-12-31T10:28:38.683Z,45.80
2017-12-31T10:31:06.482Z,45.60
2017-12-31T10:33:35.114Z,44.80
2017-12-31T10:36:03.673Z,43.40
2017-12-31T10:38:32.635Z,43.40
2017-12-31T10:41:01.260Z,44.00
2017-12-31T10:43:29.129Z,44.00
2017-12-31T10:45:56.896Z,44.00
2017-12-31T10:48:24.736Z,43.80
2017-12-31T10:50:52.507Z,43.60
2017-12-31T10:53:20.325Z,43.40
2017-12-31T10:55:48.190Z,43.20
2017-12-31T10:58:16.028Z,42.80
2017-12-31T11:00:44.310Z,42.60
2017-12-31T11:03:12.180Z,42.30
2017-12-31T11:05:40.739Z,42.10
2017-12-31T11:08:08.629Z,42.10
2017-12-31T11:10:36.441Z,41.80
2017-12-31T11:13:04.820Z,41.70
2017-12-31T11:15:32.632Z,41.50
2017-12-31T11:18:00.376Z,41.40
2017-12-31T11:20:28.233Z,41.50
2017-12-31T11:22:56.045Z,41.30
2017-12-31T11:25:23.923Z,41.40
2017-12-31T11:27:52.685Z,41.20
2017-12-31T11:30:20.525Z,41.40
2017-12-31T11:32:48.395Z,41.50
2017-12-31T11:35:16.204Z,41.60
2017-12-31T11:37:43.969Z,41.10
2017-12-31T11:40:11.794Z,41.90
2017-12-31T11:42:39.641Z,42.00
2017-12-31T11:45:07.520Z,42.00
2017-12-31T11:47:35.308Z,41.90
2017-12-31T11:50:03.871Z,41.80
2017-12-31T11:52:31.658Z,42.20
2017-12-31T11:55:00.470Z,42.30
2017-12-31T11:57:29.128Z,42.40
2017-12-31T11:59:56.979Z,42.20
2017-12-31T12:02:25.547Z,40.20
2017-12-31T12:04:53.417Z,42.50
2017-12-31T12:07:23.130Z,42.60
2017-12-31T12:09:55.046Z,42.70
2017-12-31T12:12:23.648Z,42.90
2017-12-31T12:14:51.446Z,42.80
2017-12-31T12:17:21.453Z,42.90
2017-12-31T12:19:49.406Z,43.00
2017-12-31T12:22:18.160Z,43.00
2017-12-31T12:24:46.048Z,43.10
2017-12-31T12:27:13.856Z,43.50
2017-12-31T12:29:41.693Z,43.00
2017-12-31T12:32:09.630Z,43.00
2017-12-31T12:34:37.467Z,43.00
2017-12-31T12:37:05.317Z,43.00
2017-12-31T12:39:33.222Z,43.00
2017-12-31T12:42:01.087Z,43.10
2017-12-31T12:44:28.968Z,43.20
2017-12-31T12:46:56.736Z,42.00
2017-12-31T12:49:24.502Z,43.20
2017-12-31T12:51:52.402Z,40.50
2017-12-31T12:54:20.981Z,43.50
2017-12-31T12:56:49.642Z,43.60
2017-12-31T12:59:17.464Z,43.60
2017-12-31T13:01:45.357Z,42.60
2017-12-31T13:04:13.172Z,43.60
2017-12-31T13:06:41.059Z,43.50
2017-12-31T13:09:08.924Z,43.80
2017-12-31T13:11:36.817Z,43.70
2017-12-31T13:14:04.662Z,42.00
2017-12-31T13:16:33.230Z,43.80
2017-12-31T13:19:01.044Z,43.70
2017-12-31T13:21:28.909Z,43.90
2017-12-31T13:23:56.701Z,43.80
2017-12-31T13:26:24.491Z,43.80
2017-12-31T13:28:52.272Z,43.80
2017-12-31T13:31:20.579Z,43.60
2017-12-31T13:33:48.392Z,41.50
2017-12-31T13:36:16.246Z,43.50
2017-12-31T13:38:44.078Z,43.10
2017-12-31T13:41:11.908Z,43.00
2017-12-31T13:43:39.670Z,42.90
2017-12-31T13:46:07.514Z,42.80
2017-12-31T13:48:35.330Z,42.60
2017-12-31T13:51:03.262Z,42.60
2017-12-31T13:53:31.150Z,42.60
2017-12-31T13:55:58.959Z,42.40
2017-12-31T13:58:27.932Z,42.30
2017-12-31T14:00:56.540Z,42.40
2017-12-31T14:03:24.388Z,42.30
2017-12-31T14:05:52.262Z,42.50
2017-12-31T14:08:28.120Z,42.40
2017-12-31T14:10:56.689Z,42.50
2017-12-31T14:13:24.517Z,42.40
2017-12-31T14:15:52.419Z,42.50
2017-12-31T14:18:20.209Z,42.60
2017-12-31T14:20:48.080Z,42.50
2017-12-31T14:23:15.837Z,42.80
2017-12-31T14:25:43.737Z,42.60
2017-12-31T14:28:11.540Z,42.80
2017-12-31T14:30:39.338Z,42.70
2017-12-31T14:33:07.157Z,42.70
2017-12-31T14:35:35.075Z,42.70
2017-12-31T14:38:03.781Z,43.10
2017-12-31T14:40:31.579Z,43.00
2017-12-31T14:42:59.414Z,43.00
2017-12-31T14:45:28.042Z,42.90
2017-12-31T14:47:55.862Z,42.90
2017-12-31T14:50:23.711Z,43.20
2017-12-31T14:52:51.494Z,42.90
2017-12-31T14:55:19.311Z,43.10
2017-12-31T14:57:47.209Z,43.00
2017-12-31T15:00:15.084Z,43.20
2017-12-31T15:02:42.908Z,43.30
2017-12-31T15:05:10.729Z,43.40
2017-12-31T15:07:38.560Z,43.20
2017-12-31T15:10:06.440Z,43.90
2017-12-31T15:12:34.263Z,43.40
2017-12-31T15:15:02.114Z,43.40
2017-12-31T15:17:30.702Z,43.50
2017-12-31T15:19:58.554Z,43.40
2017-12-31T15:22:26.349Z,43.60
2017-12-31T15:24:54.169Z,44.40
2017-12-31T15:27:22.051Z,43.90
2017-12-31T15:29:49.967Z,43.80
2017-12-31T15:32:17.797Z,43.80
2017-12-31T15:34:45.646Z,43.80
2017-12-31T15:37:13.527Z,43.80
2017-12-31T15:39:41.393Z,43.90
2017-12-31T15:42:09.224Z,44.00
2017-12-31T15:44:37.058Z,43.90
2017-12-31T15:47:10.127Z,43.80
2017-12-31T15:49:39.956Z,43.70
2017-12-31T15:52:21.814Z,43.60
2017-12-31T15:54:49.656Z,43.80
2017-12-31T15:57:18.245Z,43.50
2017-12-31T15:59:46.013Z,43.40
2017-12-31T16:02:20.533Z,43.20
2017-12-31T16:04:51.762Z,43.00
2017-12-31T16:07:19.716Z,43.10
2017-12-31T16:09:48.358Z,43.20
2017-12-31T16:12:16.253Z,43.20
2017-12-31T16:14:44.055Z,42.70
2017-12-31T16:17:11.920Z,42.70
2017-12-31T16:19:40.553Z,43.10
2017-12-31T16:22:08.434Z,42.50
2017-12-31T16:24:36.342Z,42.60
2017-12-31T16:27:04.213Z,42.60
2017-12-31T16:29:32.889Z,42.70
2017-12-31T16:32:01.465Z,42.80
2017-12-31T16:34:29.305Z,42.70
2017-12-31T16:36:57.219Z,42.50
2017-12-31T16:39:25.056Z,42.50
2017-12-31T16:41:52.839Z,42.60
2017-12-31T16:44:20.674Z,42.60
2017-12-31T16:46:48.565Z,42.60
2017-12-31T16:49:16.384Z,42.70
2017-12-31T16:51:44.268Z,42.90
2017-12-31T16:54:12.175Z,42.80
2017-12-31T16:56:40.038Z,42.80
2017-12-31T16:59:07.986Z,42.90
2017-12-31T17:01:36.035Z,43.00
2017-12-31T17:04:03.923Z,43.20
2017-12-31T17:06:31.782Z,43.30
2017-12-31T17:08:59.850Z,43.30
2017-12-31T17:11:27.765Z,43.30
2017-12-31T17:13:55.632Z,43.30
2017-12-31T17:16:23.547Z,43.30
2017-12-31T17:18:51.443Z,43.40
2017-12-31T17:21:19.266Z,43.40
2017-12-31T17:23:47.867Z,43.50
2017-12-31T17:26:15.760Z,43.50
2017-12-31T17:28:43.635Z,43.70
2017-12-31T17:31:11.590Z,43.60
2017-12-31T17:33:39.516Z,43.70
2017-12-31T17:36:07.348Z,43.60
2017-12-31T17:38:35.228Z,43.70
2017-12-31T17:41:03.056Z,43.80
2017-12-31T17:43:31.013Z,43.80
2017-12-31T17:45:58.931Z,43.80
2017-12-31T17:48:26.953Z,44.00
2017-12-31T17:50:55.589Z,44.10
2017-12-31T17:53:23.454Z,44.00
2017-12-31T17:55:51.296Z,44.20
2017-12-31T17:58:19.185Z,44.10
2017-12-31T18:00:47.054Z,44.10
2017-12-31T18:03:14.939Z,44.10
2017-12-31T18:05:43.514Z,44.00
2017-12-31T18:08:11.273Z,44.00
2017-12-31T18:10:39.045Z,44.00
2017-12-31T18:13:06.884Z,43.90
2017-12-31T18:15:34.691Z,43.80
2017-12-31T18:18:02.493Z,43.80
2017-12-31T18:20:30.332Z,43.70
2017-12-31T18:22:58.088Z,43.50
2017-12-31T18:25:25.909Z,43.50
2017-12-31T18:27:54.516Z,43.30
2017-12-31T18:30:22.327Z,43.20
2017-12-31T18:32:50.131Z,43.30
2017-12-31T18:35:18.654Z,43.00
2017-12-31T18:37:46.432Z,43.00
2017-12-31T18:40:14.208Z,43.00
2017-12-31T18:42:42.008Z,42.90
2017-12-31T18:45:09.750Z,42.80
2017-12-31T18:47:37.573Z,42.80
2017-12-31T18:50:05.337Z,42.70
2017-12-31T18:52:33.170Z,42.60
2017-12-31T18:55:00.940Z,42.50
2017-12-31T18:57:28.776Z,42.60
2017-12-31T18:59:56.554Z,43.10
2017-12-31T19:02:24.373Z,42.50
2017-12-31T19:04:52.203Z,42.50
2017-12-31T19:07:19.944Z,42.50
2017-12-31T19:09:48.462Z,42.50
2017-12-31T19:12:16.228Z,42.50
2017-12-31T19:14:43.998Z,42.60
2017-12-31T19:17:12.608Z,42.80
2017-12-31T19:19:40.354Z,42.70
2017-12-31T19:22:08.167Z,42.90
2017-12-31T19:24:35.930Z,43.00
2017-12-31T19:27:03.790Z,43.10
2017-12-31T19:29:31.618Z,43.20
2017-12-31T19:31:59.428Z,42.80
2017-12-31T19:34:27.249Z,43.30
2017-12-31T19:36:55.074Z,43.30
2017-12-31T19:39:23.665Z,43.40
2017-12-31T19:41:51.423Z,43.50
2017-12-31T19:44:19.181Z,43.50
2017-12-31T19:46:46.998Z,43.50
2017-12-31T19:49:14.811Z,43.50
2017-12-31T19:51:42.619Z,43.50
2017-12-31T19:54:10.489Z,43.60
2017-12-31T19:56:38.375Z,43.50
2017-12-31T19:59:06.214Z,43.70
2017-12-31T20:01:33.984Z,43.70
2017-12-31T20:04:01.743Z,43.70
2017-12-31T20:06:29.570Z,43.80
2017-12-31T20:08:58.092Z,43.70
2017-12-31T20:11:25.901Z,43.70
2017-12-31T20:13:53.683Z,43.80
2017-12-31T20:16:21.432Z,43.80
2017-12-31T20:18:49.392Z,44.00
2017-12-31T20:21:17.155Z,44.00
2017-12-31T20:23:45.012Z,44.00
2017-12-31T20:26:12.862Z,43.90
2017-12-31T20:28:40.770Z,43.90
2017-12-31T20:31:08.598Z,43.80
2017-12-31T20:33:36.396Z,43.80
2017-12-31T20:36:04.288Z,43.70
2017-12-31T20:38:32.873Z,43.50
2017-12-31T20:41:00.691Z,43.50
2017-12-31T20:43:28.541Z,43.50
2017-12-31T20:45:56.369Z,43.50
2017-12-31T20:48:24.283Z,43.40
2017-12-31T20:50:52.069Z,43.10
2017-12-31T20:53:20.062Z,43.10
2017-12-31T20:55:47.983Z,43.00
2017-12-31T20:58:15.967Z,43.00
2017-12-31T21:00:43.912Z,42.90
2017-12-31T21:03:11.828Z,42.80
2017-12-31T21:05:39.755Z,42.80
2017-12-31T21:08:07.771Z,42.70
2017-12-31T21:10:35.845Z,42.80
2017-12-31T21:13:03.779Z,42.80
2017-12-31T21:15:31.666Z,42.70
2017-12-31T21:17:59.629Z,43.00
2017-12-31T21:20:27.504Z,42.80
2017-12-31T21:22:55.378Z,42.70
2017-12-31T21:25:23.319Z,42.70
2017-12-31T21:27:51.239Z,42.70
2017-12-31T21:30:19.169Z,42.70
2017-12-31T21:32:47.098Z,42.80
2017-12-31T21:35:15.146Z,42.80
2017-12-31T21:37:43.160Z,42.80
2017-12-31T21:40:11.099Z,42.90
2017-12-31T21:42:39.150Z,43.00
2017-12-31T21:45:07.579Z,42.90
2017-12-31T21:47:36.319Z,43.20
2017-12-31T21:50:04.238Z,43.10
2017-12-31T21:52:32.172Z,43.30
2017-12-31T21:55:00.113Z,43.40
2017-12-31T21:57:28.043Z,43.50
2017-12-31T21:59:57.042Z,43.60
2017-12-31T22:02:25.008Z,43.50
2017-12-31T22:04:53.025Z,43.70
2017-12-31T22:07:20.977Z,43.70
2017-12-31T22:09:48.979Z,43.80
2017-12-31T22:12:17.453Z,43.60
2017-12-31T22:14:45.357Z,43.80
2017-12-31T22:17:13.347Z,43.90
2017-12-31T22:19:41.178Z,43.90
2017-12-31T22:22:10.003Z,44.00
2017-12-31T22:24:37.910Z,44.00
2017-12-31T22:27:05.863Z,44.00
2017-12-31T22:29:34.589Z,44.10
2017-12-31T22:32:02.534Z,44.00
2017-12-31T22:34:31.219Z,44.00
2017-12-31T22:36:59.333Z,44.00
2017-12-31T22:39:27.269Z,44.00
2017-12-31T22:41:55.087Z,44.00
2017-12-31T22:44:23.009Z,44.00
2017-12-31T22:46:50.948Z,44.10
2017-12-31T22:49:19.000Z,44.00
2017-12-31T22:51:47.013Z,44.00
2017-12-31T22:54:15.046Z,43.90
2017-12-31T22:56:43.832Z,43.90
2017-12-31T22:59:11.892Z,43.90
2017-12-31T23:01:39.881Z,43.80
2017-12-31T23:04:07.802Z,43.80
2017-12-31T23:06:35.903Z,43.80
2017-12-31T23:09:04.405Z,43.80
2017-12-31T23:11:32.242Z,43.70
2017-12-31T23:14:00.816Z,43.80
2017-12-31T23:16:28.764Z,43.70
2017-12-31T23:18:56.729Z,43.80
2017-12-31T23:21:24.646Z,44.30
2017-12-31T23:23:52.707Z,43.70
2017-12-31T23:26:20.636Z,43.70
2017-12-31T23:28:48.464Z,43.70
2017-12-31T23:31:16.843Z,43.70
2017-12-31T23:33:44.641Z,43.80
2017-12-31T23:36:12.573Z,44.40
2017-12-31T23:38:40.478Z,43.90
2017-12-31T23:41:08.340Z,43.90
2017-12-31T23:43:36.205Z,43.80
2017-12-31T23:46:04.063Z,43.90
2017-12-31T23:48:31.839Z,43.90
2017-12-31T23:50:59.736Z,44.00
2017-12-31T23:53:27.522Z,44.00
2017-12-31T23:55:56.129Z,44.00
2017-12-31T23:58:24.709Z,44.00
